Time;durP1;ratioP1;P1;durP2;ratioP2;P2;SDS_P1;SDS_P2;PMS_P1;PMS_P2;Temp;Humidity;BMP_temperature;BMP_pressure;BME280_temperature;BME280_humidity;BME280_pressure;Samples;Min_cycle;Max_cycle;Signal;HPM_P1;HPM_P2
2021/03/21 00:00:23;;;;;;;4.72;2.95;;;5.80;99.90;;;;;;4997054;28;20483;-90
2021/03/21 00:02:49;;;;;;;2.13;1.60;;;5.80;99.90;;;;;;4996849;28;20126;-91
2021/03/21 00:05:14;;;;;;;4.10;1.63;;;5.70;99.90;;;;;;4996866;28;20054;-90
2021/03/21 00:07:40;;;;;;;2.58;1.75;;;5.70;99.90;;;;;;4996981;28;20030;-90
2021/03/21 00:10:07;;;;;;;2.65;1.88;;;5.70;99.90;;;;;;4996444;28;20084;-90
2021/03/21 00:12:32;;;;;;;4.55;2.15;;;5.70;99.90;;;;;;4979131;28;20097;-89
2021/03/21 00:14:58;;;;;;;4.25;1.70;;;5.70;99.90;;;;;;4996030;28;20022;-89
2021/03/21 00:17:24;;;;;;;2.60;1.80;;;5.70;99.90;;;;;;4978162;28;20137;-90
2021/03/21 00:19:50;;;;;;;4.00;2.33;;;5.60;99.90;;;;;;4995833;28;20030;-90
2021/03/21 00:22:15;;;;;;;5.80;2.13;;;5.60;99.90;;;;;;4995790;28;20076;-88
2021/03/21 00:24:41;;;;;;;2.35;1.95;;;5.60;99.90;;;;;;4996043;28;20026;-89
2021/03/21 00:27:07;;;;;;;5.03;2.08;;;5.60;99.90;;;;;;4978253;28;20030;-90
2021/03/21 00:29:32;;;;;;;4.53;2.03;;;5.60;99.90;;;;;;4977853;28;20022;-90
2021/03/21 00:31:58;;;;;;;2.85;1.75;;;5.60;99.90;;;;;;4977820;28;20034;-89
2021/03/21 00:34:24;;;;;;;5.13;1.80;;;5.60;99.90;;;;;;4995297;28;20101;-90
2021/03/21 00:36:49;;;;;;;4.13;1.98;;;5.60;99.90;;;;;;4978147;28;20080;-90
2021/03/21 00:39:15;;;;;;;5.03;1.85;;;5.60;99.90;;;;;;4995272;28;20490;-90
2021/03/21 00:41:40;;;;;;;4.10;2.17;;;5.60;99.90;;;;;;4978170;28;20023;-91
2021/03/21 00:44:06;;;;;;;2.97;1.92;;;5.50;99.90;;;;;;4978020;28;20062;-89
2021/03/21 00:46:32;;;;;;;3.33;1.83;;;5.60;99.90;;;;;;4995516;28;20057;-89
2021/03/21 00:48:58;;;;;;;2.63;1.80;;;5.50;99.90;;;;;;4979066;28;20033;-89
2021/03/21 00:51:24;;;;;;;5.05;2.08;;;5.50;99.90;;;;;;4985827;28;20026;-90
2021/03/21 00:53:49;;;;;;;2.08;1.48;;;5.50;99.90;;;;;;4984403;28;20022;-90
2021/03/21 00:56:35;;;;;;;2.60;1.90;;;5.50;99.90;;;;;;4980933;28;20023;-89
2021/03/21 00:59:01;;;;;;;2.83;1.50;;;5.40;99.90;;;;;;4979340;28;20483;-89
2021/03/21 01:01:27;;;;;;;2.08;1.88;;;5.40;99.90;;;;;;4978232;28;20037;-90
2021/03/21 01:03:53;;;;;;;2.30;1.65;;;5.40;99.90;;;;;;4978520;28;20069;-89
2021/03/21 01:06:19;;;;;;;3.63;2.00;;;5.40;99.90;;;;;;4978979;28;20022;-90
2021/03/21 01:08:45;;;;;;;2.47;1.75;;;5.50;99.90;;;;;;4978131;28;20495;-89
2021/03/21 01:11:32;;;;;;;3.67;1.75;;;5.40;99.90;;;;;;4978210;28;20041;-90
2021/03/21 01:13:58;;;;;;;5.03;1.88;;;5.40;99.90;;;;;;4977827;28;20443;-88
2021/03/21 01:16:30;;;;;;;4.18;1.80;;;5.40;99.90;;;;;;4994949;28;20601;-90
2021/03/21 01:18:56;;;;;;;4.57;1.75;;;5.40;99.90;;;;;;4978015;28;20053;-90
2021/03/21 01:21:25;;;;;;;2.03;1.80;;;5.30;99.90;;;;;;4977283;28;20491;-90
2021/03/21 01:23:50;;;;;;;7.88;2.50;;;5.40;99.90;;;;;;4994536;28;20057;-91
2021/03/21 01:26:20;;;;;;;4.55;1.50;;;5.40;99.90;;;;;;4977368;28;20045;-90
2021/03/21 01:28:46;;;;;;;4.00;1.60;;;5.40;99.90;;;;;;4978402;28;20022;-89
2021/03/21 01:31:15;;;;;;;2.25;1.85;;;5.40;99.90;;;;;;4995566;28;20399;-90
2021/03/21 01:33:41;;;;;;;4.20;1.90;;;5.50;99.90;;;;;;4978226;28;20113;-90
2021/03/21 01:36:18;;;;;;;3.53;1.70;;;5.50;99.90;;;;;;4977810;28;20034;-90
2021/03/21 01:38:45;;;;;;;4.05;1.95;;;5.60;99.90;;;;;;4995394;28;20034;-90
2021/03/21 01:41:20;;;;;;;2.65;1.85;;;5.70;99.90;;;;;;4977849;28;20026;-90
2021/03/21 01:43:46;;;;;;;3.70;2.30;;;5.90;99.90;;;;;;4977880;28;20030;-90
2021/03/21 01:46:21;;;;;;;4.45;3.35;;;6.00;99.90;;;;;;4977767;28;20469;-89
2021/03/21 01:48:53;;;;;;;4.38;2.58;;;6.10;99.90;;;;;;4994608;28;20057;-90
2021/03/21 01:51:32;;;;;;;4.18;2.67;;;6.20;99.90;;;;;;4977725;28;20038;-90
2021/03/21 01:54:01;;;;;;;5.90;2.55;;;6.30;99.90;;;;;;4977766;28;20080;-90
2021/03/21 01:56:28;;;;;;;3.30;2.90;;;6.40;99.90;;;;;;4977982;28;20120;-91
2021/03/21 01:59:00;;;;;;;5.03;3.35;;;6.50;99.90;;;;;;4977450;28;20041;-90
2021/03/21 02:01:28;;;;;;;6.68;2.45;;;6.60;99.90;;;;;;4977860;28;20058;-90
2021/03/21 02:03:54;;;;;;;4.65;2.03;;;6.70;99.90;;;;;;4977418;28;20046;-89
2021/03/21 02:06:42;;;;;;;4.47;2.35;;;6.70;99.90;;;;;;4994843;28;20129;-90
2021/03/21 02:09:20;;;;;;;4.45;2.25;;;6.80;99.90;;;;;;4978143;28;20034;-90
2021/03/21 02:12:00;;;;;;;3.83;2.17;;;6.80;99.90;;;;;;5002046;28;20387;-89
2021/03/21 02:14:53;;;;;;;6.95;2.63;;;6.90;99.90;;;;;;4987017;28;20045;-89
2021/03/21 02:17:37;;;;;;;5.57;2.35;;;6.90;99.90;;;;;;5020839;28;20058;-89
2021/03/21 02:20:40;;;;;;;4.10;2.00;;;6.90;99.90;;;;;;5021148;28;20029;-89
2021/03/21 02:23:31;;;;;;;2.90;2.40;;;6.90;99.90;;;;;;4986363;28;20026;-89
2021/03/21 02:26:29;;;;;;;4.97;2.10;;;7.00;99.90;;;;;;4983434;28;20061;-91
2021/03/21 02:29:22;;;;;;;5.03;2.20;;;7.00;99.90;;;;;;4902378;29;20048;-89
2021/03/21 02:31:55;;;;;;;6.85;2.67;;;7.00;99.90;;;;;;4886479;29;20024;-91
2021/03/21 02:34:39;;;;;;;3.92;1.77;;;7.00;99.90;;;;;;4886692;29;20036;-90
2021/03/21 02:37:12;;;;;;;8.77;1.90;;;7.10;99.90;;;;;;4889242;29;20043;-89
2021/03/21 02:39:43;;;;;;;2.72;1.70;;;7.00;99.90;;;;;;4901680;29;20055;-89
2021/03/21 02:42:17;;;;;;;2.03;1.45;;;7.10;99.90;;;;;;4885417;29;20033;-90
2021/03/21 02:45:13;;;;;;;5.25;1.80;;;7.10;99.90;;;;;;4902019;29;20470;-89
2021/03/21 02:47:41;;;;;;;8.45;2.22;;;7.10;99.90;;;;;;4884469;29;20037;-90
2021/03/21 02:50:39;;;;;;;6.65;1.90;;;7.10;99.90;;;;;;4901124;29;20088;-90
2021/03/21 02:53:12;;;;;;;9.27;2.00;;;7.10;99.90;;;;;;4866811;29;20043;-88
2021/03/21 02:55:41;;;;;;;5.10;1.48;;;7.10;99.90;;;;;;4886157;29;20052;-90
2021/03/21 02:58:10;;;;;;;9.23;2.05;;;7.10;99.90;;;;;;4900907;29;20063;-89
2021/03/21 03:00:41;;;;;;;4.30;1.55;;;7.10;99.90;;;;;;4901360;29;20052;-89
2021/03/21 03:03:10;;;;;;;6.22;1.75;;;7.10;99.90;;;;;;4885682;29;20033;-90
2021/03/21 03:05:45;;;;;;;8.40;1.90;;;7.10;99.90;;;;;;4937084;28;20543;-89
2021/03/21 03:08:23;;;;;;;10.88;2.03;;;7.00;99.90;;;;;;4981261;28;20515;-89
2021/03/21 03:11:24;;;;;;;4.05;1.67;;;7.10;99.90;;;;;;4980968;28;20361;-90
2021/03/21 03:14:02;;;;;;;7.80;2.05;;;7.10;99.90;;;;;;4998421;28;20535;-90
2021/03/21 03:16:49;;;;;;;5.03;1.67;;;7.00;99.90;;;;;;4980761;28;20077;-90
2021/03/21 03:19:46;;;;;;;8.23;1.40;;;7.00;99.90;;;;;;4980537;28;20042;-90
2021/03/21 03:22:20;;;;;;;5.30;1.80;;;7.00;99.90;;;;;;4980473;28;20030;-89
2021/03/21 03:25:18;;;;;;;7.10;1.70;;;7.00;99.90;;;;;;4997928;28;20034;-88
2021/03/21 03:28:18;;;;;;;7.18;1.73;;;7.00;99.90;;;;;;4997501;28;20026;-90
2021/03/21 03:30:52;;;;;;;3.20;1.50;;;7.00;99.90;;;;;;4997682;28;20037;-90
2021/03/21 03:33:19;;;;;;;4.60;1.30;;;7.00;99.90;;;;;;4980285;28;20091;-90
2021/03/21 03:35:45;;;;;;;5.50;1.70;;;7.00;99.90;;;;;;4980784;28;20463;-90
2021/03/21 03:38:13;;;;;;;8.88;1.58;;;7.00;99.90;;;;;;4980842;28;20121;-89
2021/03/21 03:40:41;;;;;;;10.45;2.50;;;6.90;99.90;;;;;;4998542;28;20018;-90
2021/03/21 03:43:34;;;;;;;9.52;1.70;;;6.90;99.90;;;;;;4998215;28;20053;-90
2021/03/21 03:46:21;;;;;;;8.60;1.85;;;6.90;99.90;;;;;;4983890;28;20042;-90
2021/03/21 03:49:20;;;;;;;5.95;1.45;;;6.90;99.90;;;;;;4981976;28;20058;-89
2021/03/21 03:52:04;;;;;;;6.28;1.50;;;6.90;99.90;;;;;;4997594;28;20081;-89
2021/03/21 03:54:44;;;;;;;5.22;1.73;;;6.90;99.90;;;;;;4998193;28;20026;-89
2021/03/21 03:57:20;;;;;;;10.52;1.98;;;6.90;99.90;;;;;;4997969;28;20038;-90
2021/03/21 04:00:27;;;;;;;5.97;1.50;;;6.90;99.90;;;;;;4999421;28;20070;-88
2021/03/21 04:03:08;;;;;;;10.55;3.30;;;6.90;99.90;;;;;;4963336;28;20495;-89
2021/03/21 04:05:46;;;;;;;9.93;1.83;;;6.90;99.90;;;;;;4983440;28;20057;-89
2021/03/21 04:08:21;;;;;;;10.40;2.30;;;6.90;99.90;;;;;;4979933;28;20031;-89
2021/03/21 04:10:53;;;;;;;11.80;2.10;;;6.80;99.90;;;;;;5000495;28;20038;-89
2021/03/21 04:13:27;;;;;;;6.80;1.40;;;6.80;99.90;;;;;;4996742;28;20022;-89
2021/03/21 04:15:55;;;;;;;10.20;1.58;;;6.80;99.90;;;;;;4978872;28;20356;-89
2021/03/21 04:18:21;;;;;;;7.28;1.45;;;6.80;99.90;;;;;;4975287;28;20055;-89
2021/03/21 04:21:15;;;;;;;17.13;3.95;;;6.80;99.90;;;;;;4975481;28;20034;-89
2021/03/21 04:24:03;;;;;;;7.50;1.50;;;6.80;99.90;;;;;;4975163;28;20456;-90
2021/03/21 04:26:38;;;;;;;7.57;1.63;;;6.70;99.90;;;;;;4976514;28;20029;-89
2021/03/21 04:29:24;;;;;;;7.30;1.45;;;6.70;99.90;;;;;;4976273;28;20062;-88
2021/03/21 04:31:52;;;;;;;7.85;1.95;;;6.70;99.90;;;;;;4975251;28;20035;-90
2021/03/21 04:34:20;;;;;;;6.68;1.98;;;6.60;99.90;;;;;;4975733;28;20070;-89
2021/03/21 04:36:47;;;;;;;9.13;1.70;;;6.60;99.90;;;;;;4976070;28;20038;-89
2021/03/21 04:39:16;;;;;;;2.75;1.30;;;6.60;99.90;;;;;;4975692;28;20065;-89
2021/03/21 04:42:04;;;;;;;8.18;1.70;;;6.50;99.90;;;;;;4974949;28;20023;-88
2021/03/21 04:44:54;;;;;;;5.57;2.13;;;6.50;99.90;;;;;;4975978;28;20105;-90
2021/03/21 04:47:28;;;;;;;11.15;1.80;;;6.40;99.90;;;;;;4975983;28;20034;-88
2021/03/21 04:49:56;;;;;;;5.68;1.17;;;6.40;99.90;;;;;;4975061;28;20030;-89
2021/03/21 04:52:33;;;;;;;8.90;1.52;;;6.30;99.90;;;;;;4976349;28;20037;-90
2021/03/21 04:55:02;;;;;;;7.32;1.58;;;6.30;99.90;;;;;;4975075;28;20050;-89
2021/03/21 04:57:39;;;;;;;8.27;1.80;;;6.30;99.90;;;;;;4976255;28;20492;-90
2021/03/21 05:00:25;;;;;;;5.78;1.42;;;6.30;99.90;;;;;;4975158;28;20038;-89
2021/03/21 05:02:57;;;;;;;7.57;2.38;;;6.20;99.90;;;;;;4975827;28;20033;-89
2021/03/21 05:05:31;;;;;;;10.95;2.33;;;6.20;99.90;;;;;;4975048;28;20105;-90
2021/03/21 05:08:13;;;;;;;11.45;2.00;;;6.20;99.90;;;;;;4973847;28;20412;-90
2021/03/21 05:10:42;;;;;;;9.35;1.80;;;6.20;99.90;;;;;;4974852;28;20499;-89
2021/03/21 05:13:26;;;;;;;9.10;2.38;;;6.20;99.90;;;;;;4973331;28;20122;-89
2021/03/21 05:16:04;;;;;;;10.60;1.50;;;6.20;99.90;;;;;;4973677;28;20029;-88
2021/03/21 05:18:46;;;;;;;6.25;2.00;;;6.20;99.90;;;;;;4979059;28;20046;-89
2021/03/21 05:21:30;;;;;;;14.40;1.98;;;6.30;99.90;;;;;;4993634;28;20029;-90
2021/03/21 05:24:03;;;;;;;10.15;1.83;;;6.20;99.90;;;;;;4976759;28;20071;-89
2021/03/21 05:26:29;;;;;;;9.55;2.10;;;6.30;99.90;;;;;;4976348;28;20029;-89
2021/03/21 05:29:19;;;;;;;8.82;2.00;;;6.30;99.90;;;;;;4976474;28;20023;-91
2021/03/21 05:31:45;;;;;;;14.02;2.00;;;6.30;99.90;;;;;;4993398;28;20030;-89
2021/03/21 05:34:12;;;;;;;10.30;1.90;;;6.30;99.90;;;;;;4977454;28;20126;-89
2021/03/21 05:37:14;;;;;;;5.55;1.65;;;6.30;99.90;;;;;;4999542;28;20030;-90
2021/03/21 05:40:02;;;;;;;8.63;2.88;;;6.30;99.90;;;;;;4977076;28;20042;-89
2021/03/21 05:42:36;;;;;;;9.95;1.90;;;6.30;99.90;;;;;;4995004;28;20042;-88
2021/03/21 05:45:21;;;;;;;11.98;3.95;;;6.30;99.90;;;;;;4994560;28;20089;-89
2021/03/21 05:48:02;;;;;;;12.00;1.83;;;6.40;99.90;;;;;;4994062;28;20022;-91
2021/03/21 05:50:46;;;;;;;8.23;1.67;;;6.30;99.90;;;;;;4993955;28;20023;-90
2021/03/21 05:53:47;;;;;;;8.30;2.10;;;6.30;99.90;;;;;;4994523;28;20041;-90
2021/03/21 05:56:33;;;;;;;10.15;2.10;;;6.30;99.90;;;;;;4997405;28;20038;-90
2021/03/21 05:59:15;;;;;;;13.75;3.10;;;6.30;99.90;;;;;;5006018;28;20069;-88
2021/03/21 06:02:07;;;;;;;11.57;2.47;;;6.40;99.90;;;;;;5016949;28;20023;-90
2021/03/21 06:04:51;;;;;;;9.88;1.75;;;6.40;99.90;;;;;;5014994;28;20030;-91
2021/03/21 06:07:51;;;;;;;12.32;1.80;;;6.40;99.90;;;;;;4998752;28;20023;-90
2021/03/21 06:10:35;;;;;;;5.82;2.00;;;6.40;99.90;;;;;;4987637;28;20389;-90
2021/03/21 06:13:23;;;;;;;9.32;2.10;;;6.40;99.90;;;;;;4969327;28;20034;-89
2021/03/21 06:16:13;;;;;;;10.95;1.58;;;6.40;99.90;;;;;;4986295;28;20076;-89
2021/03/21 06:18:56;;;;;;;6.65;2.83;;;6.40;99.90;;;;;;4985637;28;20050;-90
2021/03/21 06:21:37;;;;;;;6.70;1.92;;;6.40;99.90;;;;;;4969001;28;20543;-90
2021/03/21 06:24:03;;;;;;;;;;;6.40;99.90;;;;;;4967661;28;20395;-90
2021/03/21 06:26:33;;;;;;;6.75;1.60;;;6.40;99.90;;;;;;4983536;28;20008;-90
2021/03/21 06:29:13;;;;;;;10.35;1.92;;;6.50;99.90;;;;;;4968288;28;20092;-89
2021/03/21 06:31:48;;;;;;;8.23;2.35;;;6.40;99.90;;;;;;4984607;28;20034;-89
2021/03/21 06:34:59;;;;;;;7.25;1.85;;;6.50;99.90;;;;;;4968730;28;20030;-89
2021/03/21 06:37:32;;;;;;;12.60;2.20;;;6.40;99.90;;;;;;4984988;28;20113;-90
2021/03/21 06:40:39;;;;;;;13.25;2.70;;;6.50;99.90;;;;;;4988202;28;20034;-90
2021/03/21 06:43:21;;;;;;;13.52;2.67;;;6.50;99.90;;;;;;4881348;29;20516;-90
2021/03/21 06:45:59;;;;;;;12.25;2.42;;;6.50;99.90;;;;;;4863753;29;20049;-88
2021/03/21 06:48:50;;;;;;;15.80;3.20;;;6.50;99.90;;;;;;4876805;29;20115;-91
2021/03/21 06:51:43;;;;;;;13.95;3.17;;;6.50;99.90;;;;;;4872924;29;20568;-91
2021/03/21 06:54:31;;;;;;;13.57;2.95;;;6.50;99.90;;;;;;4869958;29;20039;-90
2021/03/21 06:57:13;;;;;;;23.45;4.90;;;6.50;99.90;;;;;;4879809;29;20041;-91
2021/03/21 07:00:16;;;;;;;20.35;2.47;;;6.50;99.90;;;;;;4879188;29;20339;-89
2021/03/21 07:03:40;;;;;;;14.70;2.78;;;6.50;99.90;;;;;;4863569;29;20088;-89
2021/03/21 07:06:29;;;;;;;19.17;2.42;;;6.50;99.90;;;;;;4853072;29;20030;-89
2021/03/21 07:09:03;;;;;;;16.13;2.50;;;6.50;99.90;;;;;;4836583;29;20040;-89
2021/03/21 07:12:09;;;;;;;13.70;2.00;;;6.60;99.90;;;;;;4852784;29;20060;-90
2021/03/21 07:15:00;;;;;;;16.00;3.00;;;6.60;99.90;;;;;;4851801;29;20034;-90
2021/03/21 07:17:53;;;;;;;17.23;3.65;;;6.60;99.90;;;;;;4888613;29;20040;-90
2021/03/21 07:20:36;;;;;;;19.52;2.75;;;6.60;99.90;;;;;;4890768;29;20044;-90
2021/03/21 07:23:26;;;;;;;15.82;2.47;;;6.60;99.90;;;;;;4905915;29;20028;-91
2021/03/21 07:26:19;;;;;;;17.33;3.50;;;6.60;99.90;;;;;;4903512;29;20058;-89
2021/03/21 07:29:15;;;;;;;20.27;3.75;;;6.70;99.90;;;;;;4905126;29;20525;-90
2021/03/21 07:31:52;;;;;;;17.85;4.15;;;6.70;99.90;;;;;;4903642;29;20498;-90
2021/03/21 07:34:36;;;;;;;18.52;3.33;;;6.70;99.90;;;;;;4878741;29;20044;-92
2021/03/21 07:37:31;;;;;;;20.60;2.97;;;6.70;99.90;;;;;;4896905;29;20036;-90
2021/03/21 07:40:03;;;;;;;19.38;2.83;;;6.80;99.90;;;;;;4933830;28;20035;-90
2021/03/21 07:42:46;;;;;;;20.70;4.78;;;6.80;99.90;;;;;;4986316;28;20037;-90
2021/03/21 07:45:19;;;;;;;21.98;3.10;;;6.80;99.90;;;;;;4969996;28;20039;-92
2021/03/21 07:48:09;;;;;;;18.15;2.55;;;6.80;99.90;;;;;;4969256;28;20023;-89
2021/03/21 07:51:05;;;;;;;16.35;2.28;;;6.90;99.90;;;;;;4986090;28;20034;-90
2021/03/21 07:53:38;;;;;;;17.77;2.72;;;6.90;99.90;;;;;;4982857;28;20037;-90
2021/03/21 07:56:32;;;;;;;24.50;2.80;;;7.00;99.90;;;;;;4968844;28;20026;-91
2021/03/21 07:59:09;;;;;;;18.48;2.45;;;7.00;99.90;;;;;;4986599;28;20046;-90
2021/03/21 08:01:38;;;;;;;21.80;2.45;;;7.10;99.90;;;;;;4968003;28;20027;-90
2021/03/21 08:04:15;;;;;;;13.65;2.25;;;7.10;99.90;;;;;;4982290;28;20038;-90
2021/03/21 08:06:47;;;;;;;16.52;3.63;;;7.10;99.90;;;;;;4980240;28;20023;-89
2021/03/21 08:09:19;;;;;;;19.90;2.72;;;7.10;99.90;;;;;;4964727;28;20110;-90
2021/03/21 08:11:56;;;;;;;15.15;2.10;;;7.20;99.90;;;;;;4983280;28;20119;-90
2021/03/21 08:14:30;;;;;;;18.63;2.63;;;7.20;99.90;;;;;;4968820;28;20570;-88
2021/03/21 08:17:04;;;;;;;14.38;3.10;;;7.20;99.90;;;;;;4967555;28;20081;-88
2021/03/21 08:19:33;;;;;;;15.93;3.28;;;7.30;99.90;;;;;;4980516;28;20046;-88
2021/03/21 08:21:59;;;;;;;22.25;3.38;;;7.40;99.90;;;;;;4974588;28;20045;-89
2021/03/21 08:24:33;;;;;;;18.98;2.63;;;7.30;99.90;;;;;;4988757;28;20464;-90
2021/03/21 08:27:02;;;;;;;15.35;2.83;;;7.40;99.90;;;;;;4975175;28;20031;-89
2021/03/21 08:29:28;;;;;;;27.02;3.05;;;7.40;99.90;;;;;;4967005;28;20126;-87
2021/03/21 08:32:06;;;;;;;20.77;2.85;;;7.40;99.90;;;;;;4988249;28;20048;-87
2021/03/21 08:34:33;;;;;;;19.65;4.18;;;7.40;99.90;;;;;;4966969;28;20045;-91
2021/03/21 08:37:02;;;;;;;30.80;3.35;;;7.50;99.90;;;;;;4991218;28;20105;-89
2021/03/21 08:39:42;;;;;;;21.17;3.90;;;7.50;99.90;;;;;;4986872;28;20041;-90
2021/03/21 08:42:26;;;;;;;16.10;3.50;;;7.50;99.90;;;;;;4965634;28;20125;-90
2021/03/21 08:45:24;;;;;;;21.63;3.10;;;7.50;99.90;;;;;;4990962;28;20030;-90
2021/03/21 08:47:57;;;;;;;12.13;2.85;;;7.60;99.90;;;;;;4969465;28;20088;-91
2021/03/21 08:50:35;;;;;;;21.83;3.55;;;7.60;99.90;;;;;;4987266;28;20097;-90
2021/03/21 08:53:01;;;;;;;24.50;3.78;;;7.60;99.90;;;;;;4964099;28;20062;-90
2021/03/21 08:55:33;;;;;;;28.27;4.47;;;7.60;99.90;;;;;;4966809;28;20062;-90
2021/03/21 08:58:18;;;;;;;24.13;5.10;;;7.60;99.90;;;;;;4984329;28;20093;-89
2021/03/21 09:00:44;;;;;;;19.23;3.15;;;7.70;99.90;;;;;;4984872;28;20036;-91
2021/03/21 09:03:39;;;;;;;28.42;5.07;;;7.70;99.90;;;;;;4985617;28;20366;-90
2021/03/21 09:06:05;;;;;;;25.00;3.42;;;7.70;99.90;;;;;;4953849;28;20027;-91
2021/03/21 09:08:33;;;;;;;21.98;3.80;;;7.80;99.90;;;;;;4965622;28;20034;-89
2021/03/21 09:11:03;;;;;;;13.25;3.17;;;7.80;99.90;;;;;;4984528;28;20049;-90
2021/03/21 09:13:33;;;;;;;21.33;3.92;;;7.80;99.90;;;;;;4985333;28;20476;-90
2021/03/21 09:16:00;;;;;;;26.63;3.50;;;7.90;99.90;;;;;;4987576;28;20022;-90
2021/03/21 09:18:36;;;;;;;18.55;3.72;;;7.90;99.90;;;;;;4987301;28;20104;-91
2021/03/21 09:21:25;;;;;;;24.30;3.83;;;7.90;99.90;;;;;;4968709;28;20027;-90
2021/03/21 09:24:01;;;;;;;33.80;4.63;;;8.00;99.90;;;;;;4986672;28;20026;-89
2021/03/21 09:26:43;;;;;;;21.65;4.15;;;8.10;99.90;;;;;;5003570;28;20031;-89
2021/03/21 09:29:14;;;;;;;20.38;4.47;;;8.10;99.90;;;;;;4981539;28;20038;-91
2021/03/21 09:31:41;;;;;;;17.95;4.07;;;8.10;99.90;;;;;;4975180;28;20030;-90
2021/03/21 09:34:11;;;;;;;24.52;4.40;;;8.20;99.90;;;;;;4988347;28;20043;-91
2021/03/21 09:36:42;;;;;;;34.73;4.17;;;8.20;99.90;;;;;;4970495;28;20034;-91
2021/03/21 09:39:19;;;;;;;28.27;4.95;;;8.20;99.90;;;;;;4985901;28;20045;-90
2021/03/21 09:41:50;;;;;;;25.48;4.70;;;8.20;99.90;;;;;;4985899;28;20018;-90
2021/03/21 09:44:21;;;;;;;18.00;4.47;;;8.30;99.90;;;;;;4969383;28;20074;-89
2021/03/21 09:46:57;;;;;;;19.77;4.60;;;8.40;99.90;;;;;;4971314;28;20035;-88
2021/03/21 09:49:54;;;;;;;19.10;4.05;;;8.50;99.90;;;;;;4991477;28;20031;-88
2021/03/21 09:52:26;;;;;;;17.48;3.80;;;8.60;99.90;;;;;;4953096;28;20031;-90
2021/03/21 09:55:27;;;;;;;22.17;4.15;;;8.80;99.90;;;;;;4986239;28;20031;-89
2021/03/21 09:58:30;;;;;;;16.13;4.63;;;9.10;99.90;;;;;;4941587;28;20046;-92
2021/03/21 10:01:26;;;;;;;28.25;4.20;;;9.40;99.90;;;;;;4969830;28;20503;-89
2021/03/21 10:04:03;;;;;;;21.63;4.25;;;9.60;99.90;;;;;;4999793;28;20491;-90
2021/03/21 10:06:39;;;;;;;25.83;4.15;;;9.80;99.90;;;;;;4980185;28;20066;-91
2021/03/21 10:09:32;;;;;;;23.30;4.72;;;10.00;99.90;;;;;;4976581;28;20053;-88
2021/03/21 10:12:06;;;;;;;23.65;3.88;;;10.20;99.90;;;;;;4963750;28;20074;-88
2021/03/21 10:14:32;;;;;;;22.48;5.88;;;10.30;99.90;;;;;;4965211;28;20030;-92
2021/03/21 10:17:17;;;;;;;21.48;4.25;;;10.70;99.90;;;;;;4981157;28;20042;-91
2021/03/21 10:19:51;;;;;;;23.02;4.35;;;11.00;99.90;;;;;;4980856;28;20045;-91
2021/03/21 10:22:28;;;;;;;20.83;4.10;;;11.10;99.90;;;;;;4964659;28;20037;-91
2021/03/21 10:24:59;;;;;;;24.73;4.75;;;11.40;99.90;;;;;;4966504;28;20087;-91
2021/03/21 10:27:47;;;;;;;20.50;4.20;;;11.60;99.90;;;;;;4965844;28;20031;-90
2021/03/21 10:30:21;;;;;;;19.27;4.28;;;11.70;99.90;;;;;;4967769;28;20125;-90
2021/03/21 10:33:00;;;;;;;19.05;5.35;;;11.70;99.90;;;;;;4970250;28;20064;-91
2021/03/21 10:35:28;;;;;;;20.33;4.22;;;11.80;99.20;;;;;;4974466;28;20145;-91
2021/03/21 10:38:06;;;;;;;18.58;4.40;;;11.90;98.50;;;;;;4968403;28;20065;-91
2021/03/21 10:40:32;;;;;;;15.90;4.78;;;12.10;97.80;;;;;;4968808;28;20023;-90
2021/03/21 10:42:58;;;;;;;17.30;4.47;;;12.20;97.20;;;;;;4989187;28;20539;-91
2021/03/21 10:45:33;;;;;;;15.05;4.35;;;12.40;96.80;;;;;;4971418;28;20466;-93
2021/03/21 10:48:02;;;;;;;14.20;3.92;;;12.60;96.00;;;;;;4972091;28;20026;-95
2021/03/21 10:50:28;;;;;;;17.25;3.50;;;12.80;95.50;;;;;;4969766;28;20109;-91
2021/03/21 10:53:19;;;;;;;16.10;4.07;;;12.90;95.10;;;;;;4972179;28;20117;-90
2021/03/21 10:56:20;;;;;;;24.00;4.30;;;12.90;93.90;;;;;;4992238;28;20027;-89
2021/03/21 10:58:45;;;;;;;;;;;12.80;93.60;;;;;;4986000;28;20041;-88
2021/03/21 11:01:17;;;;;;;11.80;4.07;;;12.80;93.60;;;;;;4973228;28;19914;-88
2021/03/21 11:04:02;;;;;;;21.67;4.18;;;12.70;93.40;;;;;;4994823;28;20050;-91
2021/03/21 11:06:31;;;;;;;21.80;4.10;;;12.50;93.40;;;;;;4990935;28;20511;-90
2021/03/21 11:09:12;;;;;;;14.40;4.32;;;12.40;93.00;;;;;;4968812;28;20022;-92
2021/03/21 11:11:43;;;;;;;20.40;3.70;;;12.20;93.00;;;;;;4986302;28;20030;-88
2021/03/21 11:14:13;;;;;;;17.80;4.32;;;11.90;92.90;;;;;;4967791;28;20033;-94
2021/03/21 11:16:39;;;;;;;17.58;4.22;;;11.80;93.20;;;;;;4969202;28;20027;-91
2021/03/21 11:19:11;;;;;;;16.75;4.38;;;11.90;93.30;;;;;;4987071;28;20078;-92
2021/03/21 11:21:38;;;;;;;26.48;4.90;;;12.00;93.40;;;;;;4968249;28;20050;-90
2021/03/21 11:24:18;;;;;;;17.77;4.50;;;12.20;93.20;;;;;;4987321;28;20109;-91
2021/03/21 11:26:43;;;;;;;18.38;4.72;;;12.20;92.70;;;;;;4990236;28;20113;-93
2021/03/21 11:29:12;;;;;;;16.90;5.13;;;12.30;92.60;;;;;;4968926;28;20113;-89
2021/03/21 11:31:43;;;;;;;21.98;5.65;;;12.30;92.40;;;;;;4968435;28;20038;-92
2021/03/21 11:34:14;;;;;;;15.65;5.07;;;12.20;92.30;;;;;;4990572;28;20042;-89
2021/03/21 11:36:40;;;;;;;26.58;5.75;;;12.20;92.30;;;;;;4987110;28;20026;-89
2021/03/21 11:39:31;;;;;;;17.02;5.50;;;12.20;92.40;;;;;;4959607;28;20547;-89
2021/03/21 11:41:56;;;;;;;16.10;4.50;;;12.30;92.30;;;;;;4988650;28;20030;-91
2021/03/21 11:44:29;;;;;;;14.65;4.63;;;12.30;92.20;;;;;;4990128;28;20092;-88
2021/03/21 11:47:17;;;;;;;21.83;5.60;;;12.30;92.10;;;;;;4986256;28;20025;-89
2021/03/21 11:49:43;;;;;;;15.65;4.60;;;12.20;91.90;;;;;;4979685;28;20027;-90
2021/03/21 11:52:09;;;;;;;13.75;4.88;;;12.20;92.00;;;;;;4989428;28;20030;-90
2021/03/21 11:54:37;;;;;;;17.58;4.40;;;12.20;92.00;;;;;;4995618;28;20105;-90
2021/03/21 11:57:12;;;;;;;11.70;4.00;;;12.20;92.10;;;;;;4995788;28;20027;-91
2021/03/21 12:00:12;;;;;;;12.95;4.28;;;12.20;92.20;;;;;;4960571;28;20389;-90
2021/03/21 12:02:48;;;;;;;13.35;4.45;;;12.20;92.00;;;;;;4986541;28;20502;-90
2021/03/21 12:05:20;;;;;;;16.60;4.97;;;12.20;92.10;;;;;;4996430;28;20032;-89
2021/03/21 12:07:47;;;;;;;17.67;4.90;;;12.10;92.00;;;;;;4980207;28;20023;-90
2021/03/21 12:10:30;;;;;;;17.15;5.43;;;12.10;92.00;;;;;;4990210;28;20026;-90
2021/03/21 12:12:55;;;;;;;11.43;3.50;;;12.10;91.80;;;;;;5008242;28;20049;-89
2021/03/21 12:15:24;;;;;;;15.32;3.80;;;12.10;91.70;;;;;;5005769;28;20034;-90
2021/03/21 12:18:01;;;;;;;8.88;3.63;;;12.10;91.80;;;;;;4981813;28;20050;-91
2021/03/21 12:20:39;;;;;;;13.68;5.00;;;12.10;91.70;;;;;;4963284;28;20518;-91
2021/03/21 12:23:06;;;;;;;11.57;3.85;;;12.10;91.60;;;;;;4973570;28;20054;-90
2021/03/21 12:25:35;;;;;;;11.48;4.00;;;12.00;91.50;;;;;;4994436;28;20038;-90
2021/03/21 12:28:13;;;;;;;10.98;3.67;;;12.00;91.50;;;;;;4983093;28;20113;-89
2021/03/21 12:30:50;;;;;;;11.00;4.07;;;12.00;91.50;;;;;;5001917;28;20023;-92
2021/03/21 12:33:28;;;;;;;12.50;3.38;;;12.00;91.50;;;;;;4987415;28;20081;-91
2021/03/21 12:36:10;;;;;;;6.15;2.90;;;11.90;91.60;;;;;;4987066;28;20025;-92
2021/03/21 12:38:42;;;;;;;10.88;3.30;;;12.00;91.70;;;;;;4989070;28;20069;-92
2021/03/21 12:41:23;;;;;;;11.15;3.42;;;12.00;91.70;;;;;;4989771;28;20037;-92
2021/03/21 12:44:09;;;;;;;13.18;3.55;;;12.00;91.50;;;;;;5001811;28;20035;-90
2021/03/21 12:47:15;;;;;;;15.13;7.22;;;12.00;91.40;;;;;;4994006;28;20034;-92
2021/03/21 12:49:52;;;;;;;10.70;3.65;;;12.00;91.30;;;;;;4968009;28;20019;-91
2021/03/21 12:52:42;;;;;;;12.90;4.07;;;12.10;91.20;;;;;;4996476;28;20050;-88
2021/03/21 12:55:12;;;;;;;8.63;3.20;;;12.20;91.00;;;;;;4980110;28;20035;-89
2021/03/21 12:57:37;;;;;;;10.00;3.30;;;12.30;90.80;;;;;;4984138;28;20042;-92
2021/03/21 13:00:05;;;;;;;9.02;3.40;;;12.30;90.30;;;;;;4993021;28;20110;-90
2021/03/21 13:02:34;;;;;;;11.07;3.65;;;12.20;90.30;;;;;;5007328;28;20122;-91
2021/03/21 13:05:03;;;;;;;7.15;3.05;;;12.10;90.00;;;;;;4987142;28;20019;-90
2021/03/21 13:07:29;;;;;;;7.78;3.85;;;12.00;90.20;;;;;;4975160;28;20117;-90
2021/03/21 13:09:57;;;;;;;10.18;3.30;;;11.90;90.10;;;;;;4997615;28;20034;-90
2021/03/21 13:12:25;;;;;;;11.73;4.03;;;11.80;90.10;;;;;;4974477;28;20027;-91
2021/03/21 13:14:52;;;;;;;12.52;3.72;;;11.80;90.50;;;;;;4991192;28;20034;-92
2021/03/21 13:17:18;;;;;;;10.15;3.70;;;11.80;90.40;;;;;;5007034;28;20030;-95
2021/03/21 13:19:44;;;;;;;7.97;3.10;;;11.80;90.50;;;;;;5001227;28;20093;-92
2021/03/21 13:22:10;;;;;;;7.50;3.45;;;11.90;90.30;;;;;;4995951;28;20015;-88
2021/03/21 13:24:36;;;;;;;10.00;3.63;;;11.90;90.10;;;;;;4998574;28;20348;-92
2021/03/21 13:27:03;;;;;;;8.63;3.47;;;11.90;90.00;;;;;;4992862;28;20030;-92
2021/03/21 13:29:29;;;;;;;6.95;3.53;;;11.90;90.00;;;;;;4998596;28;20034;-92
2021/03/21 13:31:56;;;;;;;9.27;4.03;;;12.00;89.80;;;;;;4988452;28;20102;-92
2021/03/21 13:34:22;;;;;;;10.00;3.85;;;12.00;88.30;;;;;;4972618;28;20041;-91
2021/03/21 13:36:48;;;;;;;13.85;3.90;;;12.00;89.00;;;;;;5006423;28;20030;-91